Time;durP1;ratioP1;P1;durP2;ratioP2;P2;SDS_P1;SDS_P2;PMS_P1;PMS_P2;Temp;Humidity;BMP_temperature;BMP_pressure;BME280_temperature;BME280_humidity;BME280_pressure;Samples;Min_cycle;Max_cycle;Signal;HPM_P1;HPM_P2
2023/03/14 00:01:10;;;;;;;1.88;0.98;;;;;;;11.77;93.75;98193.94;5018957;28;22534;-86
2023/03/14 00:03:37;;;;;;;3.30;1.25;;;;;;;11.80;93.97;98190.91;4997350;28;20080;-85
2023/03/14 00:06:05;;;;;;;2.72;1.20;;;;;;;11.81;93.70;98189.91;4989624;28;20130;-85
2023/03/14 00:08:31;;;;;;;6.45;1.20;;;;;;;11.74;93.98;98201.25;4999956;28;20109;-86
2023/03/14 00:11:04;;;;;;;7.82;1.35;;;;;;;11.72;93.29;98197.94;4998536;28;20042;-85
2023/03/14 00:13:31;;;;;;;5.15;1.05;;;;;;;11.76;93.16;98208.25;5019791;28;20049;-86
2023/03/14 00:16:11;;;;;;;1.38;0.95;;;;;;;11.69;92.38;98206.31;4996840;28;20041;-86
2023/03/14 00:18:39;;;;;;;4.95;1.10;;;;;;;11.76;93.00;98221.53;5007109;28;20048;-86
2023/03/14 00:21:07;;;;;;;1.52;1.00;;;;;;;11.71;93.09;98222.09;5015940;28;20042;-84
2023/03/14 00:23:36;;;;;;;4.28;1.00;;;;;;;11.74;92.96;98219.88;5014255;28;20120;-86
2023/03/14 00:26:05;;;;;;;3.42;1.00;;;;;;;11.70;93.24;98228.41;5005174;28;20501;-86
2023/03/14 00:28:31;;;;;;;3.92;1.10;;;;;;;11.68;93.12;98225.13;5011384;28;20391;-86
2023/03/14 00:30:58;;;;;;;3.20;1.00;;;;;;;11.64;93.20;98223.81;5012366;28;20041;-86
2023/03/14 00:33:25;;;;;;;5.57;1.58;;;;;;;11.65;92.99;98209.50;5000273;28;20042;-86
2023/03/14 00:36:00;;;;;;;1.83;1.05;;;;;;;11.57;92.43;98223.72;5002600;28;20049;-86
2023/03/14 00:38:30;;;;;;;1.48;0.93;;;;;;;11.65;92.96;98225.47;4975959;28;20095;-85
2023/03/14 00:40:57;;;;;;;4.22;1.17;;;;;;;11.58;93.14;98225.38;5021692;28;20045;-86
2023/03/14 00:43:25;;;;;;;9.38;1.55;;;;;;;11.60;92.84;98202.09;5004794;28;20041;-86
2023/03/14 00:45:53;;;;;;;4.43;1.05;;;;;;;11.57;92.62;98210.41;5006286;28;20073;-86
2023/03/14 00:48:20;;;;;;;5.05;1.20;;;;;;;11.55;92.61;98219.59;4990713;28;20069;-85
2023/03/14 00:50:47;;;;;;;2.95;1.20;;;;;;;11.57;92.11;98212.25;5025992;28;20052;-86
2023/03/14 00:53:15;;;;;;;3.88;1.00;;;;;;;11.54;91.88;98212.63;4991468;28;20080;-86
2023/03/14 00:55:43;;;;;;;1.77;1.00;;;;;;;11.58;91.51;98214.75;5004833;28;20036;-86
2023/03/14 00:58:12;;;;;;;7.65;1.23;;;;;;;11.57;91.28;98209.59;4987200;28;20057;-86
2023/03/14 01:00:39;;;;;;;2.28;1.23;;;;;;;11.58;91.20;98213.94;4990253;28;20092;-85
2023/03/14 01:03:07;;;;;;;6.32;1.38;;;;;;;11.57;91.18;98193.66;5008763;28;20095;-86
2023/03/14 01:05:33;;;;;;;3.90;1.15;;;;;;;11.56;91.05;98207.97;4976979;28;20100;-86
2023/03/14 01:08:01;;;;;;;3.08;1.10;;;;;;;11.56;90.66;98195.50;5018837;28;20048;-86
2023/03/14 01:10:27;;;;;;;2.10;1.38;;;;;;;11.59;90.59;98210.25;4977003;28;20104;-86
2023/03/14 01:12:54;;;;;;;9.48;3.10;;;;;;;11.58;90.31;98201.44;4999304;28;20061;-86
2023/03/14 01:15:21;;;;;;;9.25;2.97;;;;;;;11.57;90.38;98205.09;4988740;28;20065;-86
2023/03/14 01:17:48;;;;;;;3.53;1.50;;;;;;;11.57;90.15;98201.63;5014574;28;20055;-86
2023/03/14 01:20:16;;;;;;;8.45;1.58;;;;;;;11.54;89.88;98191.34;5009323;28;20041;-85
2023/03/14 01:22:43;;;;;;;5.60;1.48;;;;;;;11.50;90.23;98188.25;4987521;28;20504;-86
2023/03/14 01:25:13;;;;;;;5.25;1.77;;;;;;;11.48;90.18;98185.75;5003485;28;20053;-85
2023/03/14 01:27:40;;;;;;;4.95;1.50;;;;;;;11.52;89.78;98180.91;4976086;28;20137;-85
2023/03/14 01:30:09;;;;;;;5.20;1.10;;;;;;;11.50;89.47;98181.09;4969268;28;20124;-84
2023/03/14 01:32:36;;;;;;;2.78;1.17;;;;;;;11.55;89.37;98172.59;4946567;28;20050;-85
2023/03/14 01:35:03;;;;;;;3.05;1.00;;;;;;;11.54;88.96;98173.56;4991299;28;20050;-85
2023/03/14 01:37:30;;;;;;;7.60;1.70;;;;;;;11.55;89.22;98166.41;4997304;28;20045;-86
2023/03/14 01:39:57;;;;;;;2.05;1.20;;;;;;;11.56;89.18;98160.09;4999760;28;20072;-86
2023/03/14 01:42:23;;;;;;;3.28;1.20;;;;;;;11.56;89.27;98141.50;4991472;28;20097;-86
2023/03/14 01:44:56;;;;;;;4.90;1.40;;;;;;;11.51;88.76;98129.56;5016157;28;20041;-86
2023/03/14 01:47:23;;;;;;;3.35;1.10;;;;;;;11.53;89.58;98113.44;4980214;28;20042;-86
2023/03/14 01:50:02;;;;;;;2.65;1.25;;;;;;;11.57;88.69;98106.75;4989148;28;20049;-86
2023/03/14 01:52:35;;;;;;;2.33;1.33;;;;;;;11.61;89.14;98109.88;4975855;28;20076;-86
2023/03/14 01:55:07;;;;;;;3.63;1.50;;;;;;;11.55;88.84;98111.44;5010626;28;20041;-86
2023/03/14 01:57:44;;;;;;;2.20;1.55;;;;;;;11.56;89.12;98109.59;5006764;28;20050;-86
2023/03/14 02:00:16;;;;;;;6.15;1.77;;;;;;;11.57;88.80;98104.09;4971045;28;20088;-85
2023/03/14 02:02:55;;;;;;;7.28;1.80;;;;;;;11.59;88.39;98083.47;5002360;28;20064;-85
2023/03/14 02:05:32;;;;;;;4.78;1.95;;;;;;;11.59;88.83;98087.97;4974696;28;20052;-85
2023/03/14 02:08:17;;;;;;;3.80;1.30;;;;;;;11.63;88.84;98089.25;4957780;28;20049;-85
2023/03/14 02:10:51;;;;;;;3.28;1.38;;;;;;;11.67;89.15;98082.53;4981298;28;20050;-85
2023/03/14 02:13:36;;;;;;;4.63;1.50;;;;;;;11.66;89.13;98081.72;4997529;28;20515;-85
2023/03/14 02:16:16;;;;;;;6.35;1.40;;;;;;;11.64;89.28;98075.75;4989906;28;20046;-85
2023/03/14 02:19:04;;;;;;;4.88;1.02;;;;;;;11.63;89.25;98083.94;4977806;28;20049;-85
2023/03/14 02:22:05;;;;;;;2.03;1.27;;;;;;;11.61;88.75;98083.28;4972119;28;20049;-85
2023/03/14 02:24:49;;;;;;;3.70;1.48;;;;;;;11.56;88.87;98097.13;4981900;28;20065;-85
2023/03/14 02:27:18;;;;;;;2.83;1.35;;;;;;;11.63;88.91;98089.25;4991353;28;20492;-86
2023/03/14 02:29:54;;;;;;;2.92;1.52;;;;;;;11.55;89.01;98079.53;5009540;28;20052;-86
2023/03/14 02:32:23;;;;;;;3.83;1.20;;;;;;;11.64;89.51;98081.06;5006525;28;20041;-86
2023/03/14 02:34:53;;;;;;;3.67;1.30;;;;;;;11.63;89.03;98079.44;4987454;28;20174;-85
2023/03/14 02:37:22;;;;;;;4.07;1.10;;;;;;;11.60;89.23;98081.63;4988719;28;20497;-85
2023/03/14 02:39:49;;;;;;;3.40;1.27;;;;;;;11.63;89.70;98081.28;5006439;28;20041;-85
2023/03/14 02:42:16;;;;;;;4.88;1.30;;;;;;;11.64;89.85;98075.75;4986009;28;20048;-86
2023/03/14 02:44:55;;;;;;;3.47;1.15;;;;;;;11.61;88.71;98067.34;5008839;28;20040;-86
2023/03/14 02:47:27;;;;;;;9.10;1.30;;;;;;;11.65;88.73;98058.81;4986401;28;20041;-86
2023/03/14 02:49:59;;;;;;;10.13;1.48;;;;;;;11.65;89.43;98057.97;5002517;28;20128;-86
2023/03/14 02:52:26;;;;;;;3.35;1.20;;;;;;;11.67;89.66;98070.06;4982735;28;20435;-86
2023/03/14 02:54:53;;;;;;;4.20;1.27;;;;;;;11.64;89.73;98065.13;5008366;28;20052;-86
2023/03/14 02:57:20;;;;;;;3.67;1.20;;;;;;;11.69;89.71;98064.56;5012083;28;20053;-86
2023/03/14 02:59:47;;;;;;;4.75;1.45;;;;;;;11.66;89.96;98054.31;4998174;28;20580;-85
2023/03/14 03:02:17;;;;;;;2.33;1.05;;;;;;;11.68;89.74;98054.97;5003303;28;20820;-85
2023/03/14 03:04:44;;;;;;;5.85;1.20;;;;;;;11.67;89.45;98054.09;5009659;28;20065;-86
2023/03/14 03:07:11;;;;;;;4.45;1.38;;;;;;;11.69;88.92;98046.78;5008442;28;20450;-86
2023/03/14 03:09:38;;;;;;;8.57;1.63;;;;;;;11.71;88.72;98046.59;5004583;28;20144;-85
2023/03/14 03:12:05;;;;;;;6.20;2.00;;;;;;;11.69;89.13;98049.44;4989938;28;20099;-86
2023/03/14 03:14:32;;;;;;;3.40;1.30;;;;;;;11.72;88.82;98045.56;4995266;28;20054;-86
2023/03/14 03:17:02;;;;;;;8.07;1.50;;;;;;;11.68;88.99;98046.97;4987163;28;20122;-86
2023/03/14 03:19:30;;;;;;;5.30;1.52;;;;;;;11.70;89.05;98047.59;4995184;28;20141;-86
2023/03/14 03:21:57;;;;;;;1.70;1.40;;;;;;;11.65;89.25;98037.53;5015511;28;20057;-86
2023/03/14 03:24:25;;;;;;;3.38;1.50;;;;;;;11.64;89.26;98032.41;4989652;28;20053;-86
2023/03/14 03:26:51;;;;;;;3.03;1.13;;;;;;;11.58;89.17;98043.78;5007774;28;20133;-86
2023/03/14 03:29:18;;;;;;;4.28;1.98;;;;;;;11.61;88.81;98028.28;5006926;28;20064;-87
2023/03/14 03:31:45;;;;;;;5.13;1.50;;;;;;;11.57;88.76;98016.34;5006826;28;20050;-86
2023/03/14 03:34:13;;;;;;;6.13;2.08;;;;;;;11.56;88.79;98020.03;5005281;28;20049;-86
2023/03/14 03:36:41;;;;;;;5.07;1.85;;;;;;;11.56;88.69;98011.25;5007639;28;20053;-85
2023/03/14 03:39:08;;;;;;;9.40;1.45;;;;;;;11.51;88.88;98014.47;4988349;28;20054;-86
2023/03/14 03:41:35;;;;;;;2.58;1.30;;;;;;;11.49;88.46;98011.16;5001747;28;20053;-87
2023/03/14 03:44:02;;;;;;;6.35;1.45;;;;;;;11.47;88.38;98018.50;5010076;28;20050;-86
2023/03/14 03:46:30;;;;;;;8.18;1.25;;;;;;;11.48;88.29;98012.19;4995165;28;20056;-87
2023/03/14 03:48:59;;;;;;;7.35;1.77;;;;;;;11.43;87.94;98010.06;4990745;28;20513;-87
2023/03/14 03:51:27;;;;;;;7.53;1.55;;;;;;;11.44;87.99;98013.56;4998585;28;20518;-86
2023/03/14 03:53:53;;;;;;;7.50;1.40;;;;;;;11.44;87.75;98013.56;5029809;28;20116;-84
2023/03/14 03:56:27;;;;;;;6.18;1.50;;;;;;;11.41;87.96;98006.78;4987443;28;20051;-85
2023/03/14 03:58:54;;;;;;;4.13;1.20;;;;;;;11.40;88.05;98010.44;5022941;28;20381;-85
2023/03/14 04:01:20;;;;;;;5.55;1.50;;;;;;;11.39;87.81;97998.16;5009100;28;20060;-85
2023/03/14 04:03:50;;;;;;;5.47;1.70;;;;;;;11.35;87.64;97991.59;5001186;28;20060;-85
2023/03/14 04:06:18;;;;;;;3.80;1.30;;;;;;;11.37;87.57;97986.91;4995989;28;20045;-85
2023/03/14 04:08:47;;;;;;;8.95;1.20;;;;;;;11.36;87.41;97987.91;4991519;28;20397;-85
2023/03/14 04:11:34;;;;;;;2.65;1.40;;;;;;;11.34;87.05;97989.91;4959141;28;20505;-85
2023/03/14 04:14:05;;;;;;;3.15;1.27;;;;;;;11.35;86.74;97986.28;4994665;28;20108;-82
2023/03/14 04:16:33;;;;;;;26.45;6.43;;;;;;;11.36;86.44;97987.09;5023045;28;20046;-85
2023/03/14 04:19:05;;;;;;;;;;;;;;;11.15;85.63;97986.00;4984603;28;20396;-83
2023/03/14 04:21:32;;;;;;;14.10;2.95;;;;;;;11.36;85.76;97987.91;4997069;28;20417;-85
2023/03/14 04:23:59;;;;;;;7.22;2.30;;;;;;;11.31;85.95;97977.00;5026158;28;20512;-85
2023/03/14 04:26:31;;;;;;;4.30;1.93;;;;;;;11.28;86.30;97975.53;4985172;28;20397;-85
2023/03/14 04:28:58;;;;;;;8.30;3.90;;;;;;;11.32;86.05;97981.31;5018874;28;20411;-85
2023/03/14 04:31:26;;;;;;;24.23;6.60;;;;;;;11.29;85.88;97977.19;4996281;28;20044;-85
2023/03/14 04:33:52;;;;;;;30.23;10.40;;;;;;;11.27;86.33;97973.06;5030110;28;20586;-85
2023/03/14 04:36:27;;;;;;;21.25;6.50;;;;;;;11.28;86.25;97964.91;4992041;28;20054;-86
2023/03/14 04:38:56;;;;;;;8.32;1.88;;;;;;;11.26;86.29;97951.00;5002731;28;20463;-87
2023/03/14 04:41:24;;;;;;;5.28;2.30;;;;;;;11.28;85.99;97958.78;5019584;28;20120;-86
2023/03/14 04:43:51;;;;;;;6.32;2.92;;;;;;;11.28;85.69;97964.91;5013766;28;20069;-86
2023/03/14 04:46:18;;;;;;;7.60;3.25;;;;;;;11.27;85.74;97957.13;4991030;28;20037;-86
2023/03/14 04:48:45;;;;;;;11.10;3.20;;;;;;;11.29;85.05;97958.59;5000180;28;20040;-85
2023/03/14 04:51:13;;;;;;;5.15;2.20;;;;;;;11.30;85.11;97956.78;4990499;28;20831;-85
2023/03/14 04:53:41;;;;;;;7.63;1.60;;;;;;;11.30;85.06;97959.44;5006487;28;20053;-86
2023/03/14 04:56:12;;;;;;;6.75;1.60;;;;;;;11.26;85.26;97947.53;4995419;28;20045;-85
2023/03/14 04:58:41;;;;;;;6.57;1.60;;;;;;;11.26;85.11;97944.88;4989491;28;20050;-85
2023/03/14 05:01:08;;;;;;;9.55;1.92;;;;;;;11.27;84.91;97947.34;4992108;28;20053;-85
2023/03/14 05:03:49;;;;;;;4.88;1.70;;;;;;;11.29;84.54;97939.16;4989564;28;20091;-86
2023/03/14 05:06:28;;;;;;;5.93;1.75;;;;;;;11.23;84.85;97939.94;4989272;28;20049;-86
2023/03/14 05:09:01;;;;;;;7.88;2.80;;;;;;;11.22;84.39;97941.75;5020029;28;20050;-86
2023/03/14 05:11:47;;;;;;;6.63;2.50;;;;;;;11.18;84.68;97945.78;4978272;28;20628;-82
2023/03/14 05:14:40;;;;;;;5.03;1.42;;;;;;;11.15;84.95;97929.41;4958736;28;20050;-82
2023/03/14 05:17:27;;;;;;;5.78;1.70;;;;;;;11.15;85.19;97938.19;4980119;28;20045;-82
2023/03/14 05:20:12;;;;;;;5.25;1.73;;;;;;;11.15;85.01;97935.53;4992092;28;20050;-81
2023/03/14 05:23:02;;;;;;;3.63;1.58;;;;;;;11.07;85.07;97933.81;4950114;28;20066;-82
2023/03/14 05:25:49;;;;;;;4.97;1.50;;;;;;;11.09;84.77;97938.91;4983536;28;20042;-81
2023/03/14 05:28:31;;;;;;;3.60;1.17;;;;;;;11.10;84.06;97943.25;4964901;28;20050;-82
2023/03/14 05:31:08;;;;;;;8.02;1.40;;;;;;;11.11;84.34;97936.09;4986801;28;20045;-82
2023/03/14 05:33:52;;;;;;;9.80;2.00;;;;;;;11.10;83.91;97931.81;4986513;28;20140;-81
2023/03/14 05:36:47;;;;;;;4.43;1.75;;;;;;;11.08;83.87;97930.13;4921672;28;20444;-82
2023/03/14 05:39:32;;;;;;;12.50;1.95;;;;;;;11.11;83.90;97928.94;4983680;28;20041;-82
2023/03/14 05:42:10;;;;;;;9.75;1.73;;;;;;;11.11;83.47;97926.28;4988198;28;20053;-82
2023/03/14 05:44:56;;;;;;;7.53;1.92;;;;;;;11.10;83.67;97929.97;4991627;28;20732;-82
2023/03/14 05:47:36;;;;;;;4.03;1.98;;;;;;;11.10;83.64;97931.81;4999399;28;20041;-82
2023/03/14 05:50:20;;;;;;;8.35;1.70;;;;;;;11.10;83.57;97942.44;4951841;28;20050;-82
2023/03/14 05:52:55;;;;;;;7.43;1.73;;;;;;;11.11;83.53;97942.22;4972385;28;20045;-82
2023/03/14 05:55:40;;;;;;;7.60;1.48;;;;;;;11.11;83.58;97931.59;5005393;28;20076;-82
2023/03/14 05:58:17;;;;;;;4.00;1.90;;;;;;;11.06;84.48;97937.47;5014424;28;20429;-82
2023/03/14 06:01:03;;;;;;;6.55;1.35;;;;;;;11.03;84.83;97940.50;4958275;28;20053;-83
2023/03/14 06:03:59;;;;;;;5.68;1.63;;;;;;;11.05;84.84;97948.28;4943246;28;20101;-82
2023/03/14 06:06:27;;;;;;;6.03;1.08;;;;;;;11.03;85.43;97942.34;4986987;28;20045;-83
2023/03/14 06:08:54;;;;;;;4.22;1.10;;;;;;;11.01;85.43;97945.16;5001399;28;20188;-83
2023/03/14 06:11:21;;;;;;;2.25;1.30;;;;;;;11.02;85.87;97946.81;5002484;28;20045;-82
2023/03/14 06:13:48;;;;;;;8.20;1.48;;;;;;;11.00;86.02;97954.16;4990726;28;20061;-83
2023/03/14 06:16:15;;;;;;;7.18;1.58;;;;;;;11.03;86.02;97942.34;4986904;28;20150;-83
2023/03/14 06:19:07;;;;;;;9.23;1.40;;;;;;;10.84;86.71;97933.94;4969308;28;20042;-83
2023/03/14 06:21:33;;;;;;;3.85;1.38;;;;;;;11.03;85.94;97929.88;4867737;28;23916;-83
2023/03/14 06:24:00;;;;;;;11.65;1.60;;;;;;;11.15;83.57;97916.94;4941751;28;20071;-83
2023/03/14 06:26:29;;;;;;;6.40;1.58;;;;;;;11.19;82.90;97920.03;4926607;28;20047;-82
2023/03/14 06:28:56;;;;;;;3.38;1.48;;;;;;;11.17;82.63;97922.06;4925246;28;20066;-82
2023/03/14 06:31:24;;;;;;;4.38;1.67;;;;;;;11.17;82.67;97920.25;4931933;28;20126;-82
2023/03/14 06:33:58;;;;;;;4.80;1.58;;;;;;;11.17;83.17;97917.59;4902091;28;20144;-82
2023/03/14 06:36:29;;;;;;;7.50;2.13;;;;;;;11.23;82.75;97905.38;4926951;28;20538;-82
2023/03/14 06:38:57;;;;;;;8.02;2.08;;;;;;;11.28;81.91;97906.47;4942191;28;20055;-82
2023/03/14 06:41:26;;;;;;;9.20;2.35;;;;;;;11.35;81.31;97903.91;4926077;28;20162;-82
2023/03/14 06:43:53;;;;;;;5.35;3.08;;;;;;;11.37;81.37;97895.72;4943725;28;20055;-82
2023/03/14 06:46:23;;;;;;;7.28;3.20;;;;;;;11.41;81.05;97895.16;4932546;28;20518;-82
2023/03/14 06:48:49;;;;;;;6.65;1.85;;;;;;;11.45;80.07;97891.13;4930408;28;20067;-82
2023/03/14 06:51:16;;;;;;;6.55;1.38;;;;;;;11.48;80.11;97908.53;4936424;28;20059;-84
2023/03/14 06:53:43;;;;;;;3.50;1.40;;;;;;;11.51;80.13;97894.84;4925865;28;20097;-81
2023/03/14 06:56:13;;;;;;;6.70;1.52;;;;;;;11.56;79.45;97887.13;4933826;28;20049;-82
2023/03/14 06:58:40;;;;;;;8.68;1.70;;;;;;;11.54;78.77;97894.47;4948615;28;20044;-84
2023/03/14 07:01:35;;;;;;;3.97;1.38;;;;;;;11.54;77.47;97888.34;4993402;28;20452;-83
2023/03/14 07:04:09;;;;;;;7.55;1.23;;;;;;;11.66;78.04;97890.28;4950314;28;20041;-83
2023/03/14 07:06:43;;;;;;;3.42;1.00;;;;;;;11.68;77.37;97888.28;4991246;28;20049;-82
2023/03/14 07:09:11;;;;;;;4.45;1.00;;;;;;;11.71;77.15;97884.41;4980791;28;20064;-83
2023/03/14 07:11:42;;;;;;;1.25;0.70;;;;;;;11.74;77.30;97884.84;4991531;28;20053;-83
2023/03/14 07:14:09;;;;;;;3.05;0.52;;;;;;;11.78;76.81;97884.44;4992014;28;20057;-84
2023/03/14 07:16:36;;;;;;;2.70;0.50;;;;;;;11.79;76.38;97873.63;4992640;28;20046;-83
2023/03/14 07:19:02;;;;;;;1.20;0.60;;;;;;;11.81;75.97;97879.59;5000788;28;20517;-84
2023/03/14 07:21:31;;;;;;;3.75;1.55;;;;;;;11.83;75.94;97880.22;5013120;28;20044;-84
2023/03/14 07:24:02;;;;;;;1.88;0.40;;;;;;;11.86;75.36;97887.00;4996098;28;20470;-84
2023/03/14 07:26:30;;;;;;;8.02;0.85;;;;;;;11.86;74.35;97877.22;4995339;28;20091;-84
2023/03/14 07:28:59;;;;;;;2.58;0.73;;;;;;;11.90;74.90;97883.78;5000503;28;20041;-84
2023/03/14 07:31:26;;;;;;;3.38;0.95;;;;;;;11.93;75.05;97878.09;5005318;28;20057;-83
2023/03/14 07:33:53;;;;;;;22.80;2.95;;;;;;;11.87;74.41;97881.50;5026065;28;20535;-83
2023/03/14 07:36:21;;;;;;;2.47;0.75;;;;;;;11.96;73.48;97892.84;5010276;28;20041;-83
2023/03/14 07:38:48;;;;;;;3.47;0.80;;;;;;;12.01;74.09;97887.78;5013125;28;20056;-84
2023/03/14 07:41:15;;;;;;;3.30;0.80;;;;;;;12.05;74.70;97894.34;4976267;28;20497;-83
2023/03/14 07:44:01;;;;;;;4.07;0.80;;;;;;;12.11;74.67;97890.06;4979087;28;20042;-84
2023/03/14 07:46:28;;;;;;;5.30;0.93;;;;;;;12.14;73.41;97901.16;5006522;28;20081;-83
2023/03/14 07:48:55;;;;;;;2.58;1.42;;;;;;;12.15;73.02;97908.13;4996544;28;20123;-84
2023/03/14 07:51:22;;;;;;;3.80;1.60;;;;;;;12.17;73.43;97913.25;5023970;28;21003;-83
2023/03/14 07:53:48;;;;;;;3.88;0.65;;;;;;;12.14;73.27;97903.00;4999641;28;20121;-83
2023/03/14 07:56:15;;;;;;;3.83;0.70;;;;;;;12.14;73.87;97890.53;5009417;28;20046;-85
2023/03/14 07:58:42;;;;;;;6.93;0.85;;;;;;;12.16;73.67;97900.97;5009065;28;20496;-84
2023/03/14 08:01:09;;;;;;;2.67;0.52;;;;;;;12.18;74.04;97900.78;5008564;28;20041;-84
2023/03/14 08:03:35;;;;;;;4.72;0.90;;;;;;;12.18;73.53;97904.25;5010280;28;20064;-83
2023/03/14 08:06:02;;;;;;;4.88;0.70;;;;;;;12.11;72.91;97906.88;4984262;28;20133;-84
2023/03/14 08:08:29;;;;;;;0.98;0.50;;;;;;;12.15;73.32;97907.31;4993222;28;20072;-83
2023/03/14 08:10:56;;;;;;;3.40;0.80;;;;;;;12.13;73.16;97899.50;5020479;28;20050;-84
2023/03/14 08:13:25;;;;;;;3.95;1.15;;;;;;;12.06;73.24;97911.97;5008826;28;20049;-84
2023/03/14 08:15:52;;;;;;;4.47;1.17;;;;;;;12.05;72.99;97906.81;5011044;28;20054;-83
2023/03/14 08:18:18;;;;;;;2.75;0.75;;;;;;;12.06;73.15;97914.63;5014459;28;20068;-83
2023/03/14 08:20:45;;;;;;;2.65;0.73;;;;;;;12.03;73.13;97917.63;5021120;28;20124;-82
2023/03/14 08:23:12;;;;;;;2.90;0.55;;;;;;;12.05;72.86;97917.47;5010935;28;20067;-83
2023/03/14 08:25:39;;;;;;;2.20;0.50;;;;;;;12.03;72.87;97916.81;5006794;28;20046;-83
2023/03/14 08:28:06;;;;;;;3.40;0.75;;;;;;;12.06;73.51;97919.09;5024951;28;20124;-83
2023/03/14 08:30:32;;;;;;;2.85;0.80;;;;;;;12.07;73.64;97904.78;5016955;28;20045;-82
2023/03/14 08:32:59;;;;;;;4.55;0.77;;;;;;;12.05;73.83;97912.97;5015298;28;20057;-83
2023/03/14 08:35:27;;;;;;;5.05;0.70;;;;;;;12.08;74.00;97922.38;4997669;28;20037;-83
2023/03/14 08:37:53;;;;;;;3.00;1.17;;;;;;;12.07;73.80;97921.56;5030840;28;20524;-84
2023/03/14 08:40:20;;;;;;;1.77;0.57;;;;;;;12.09;74.17;97932.03;5026486;28;20516;-84
2023/03/14 08:42:47;;;;;;;3.03;0.80;;;;;;;12.08;73.76;97923.19;5017774;28;20499;-83
2023/03/14 08:45:16;;;;;;;1.02;0.80;;;;;;;12.07;73.58;97924.22;5009818;28;20049;-82
2023/03/14 08:47:44;;;;;;;4.25;1.25;;;;;;;12.08;74.12;97925.88;5010612;28;20120;-83
2023/03/14 08:50:11;;;;;;;5.95;1.17;;;;;;;12.05;74.17;97931.56;5026648;28;20180;-83
2023/03/14 08:52:42;;;;;;;2.15;0.68;;;;;;;12.07;73.92;97934.88;5019445;28;20041;-83
2023/03/14 08:55:09;;;;;;;2.58;0.80;;;;;;;12.08;74.18;97933.03;4989991;28;20510;-83
2023/03/14 08:57:36;;;;;;;1.50;0.80;;;;;;;12.06;73.93;97927.91;5008523;28;20037;-83
2023/03/14 09:00:15;;;;;;;4.40;1.17;;;;;;;12.08;74.21;97935.69;5013411;28;20990;-83
2023/03/14 09:02:42;;;;;;;2.83;1.02;;;;;;;12.08;74.54;97933.03;4997121;28;20046;-83
2023/03/14 09:05:10;;;;;;;4.47;0.73;;;;;;;12.10;74.31;97931.00;4974706;28;20037;-83
2023/03/14 09:07:37;;;;;;;5.45;1.10;;;;;;;12.10;74.06;97934.47;5004464;28;20054;-83
2023/03/14 09:10:05;;;;;;;10.55;1.02;;;;;;;12.14;73.69;97916.31;5020978;28;20045;-83
2023/03/14 09:12:32;;;;;;;6.10;1.00;;;;;;;12.18;73.88;97935.38;5005347;28;20100;-83
2023/03/14 09:14:59;;;;;;;1.42;0.80;;;;;;;12.19;73.88;97939.66;4994802;28;20042;-82
2023/03/14 09:17:25;;;;;;;1.50;0.60;;;;;;;12.19;73.51;97948.50;5011500;28;20042;-83
2023/03/14 09:19:52;;;;;;;1.08;0.60;;;;;;;12.16;73.33;97940.88;5006019;28;20574;-83
2023/03/14 09:22:20;;;;;;;1.02;0.50;;;;;;;12.18;73.34;97936.19;5017573;28;20045;-83
2023/03/14 09:24:47;;;;;;;1.30;0.60;;;;;;;12.21;73.40;97945.63;5008083;28;20037;-82
2023/03/14 09:27:13;;;;;;;2.03;0.90;;;;;;;12.25;72.99;97944.22;4975789;28;20041;-82
2023/03/14 09:29:40;;;;;;;4.32;1.20;;;;;;;12.30;73.49;97952.47;4994146;28;20045;-82
2023/03/14 09:32:07;;;;;;;2.08;0.60;;;;;;;12.29;72.59;97948.16;5006543;28;20056;-82
2023/03/14 09:34:34;;;;;;;2.03;0.80;;;;;;;12.31;73.20;97944.28;4971146;28;20100;-82
2023/03/14 09:37:02;;;;;;;3.65;1.00;;;;;;;12.27;73.28;97945.69;5003584;28;20672;-82
2023/03/14 09:39:29;;;;;;;1.55;0.82;;;;;;;12.30;73.50;97936.50;4994161;28;20092;-82
2023/03/14 09:41:57;;;;;;;2.33;0.52;;;;;;;12.36;73.71;97946.34;5007062;28;20053;-82
2023/03/14 09:44:30;;;;;;;1.98;0.68;;;;;;;12.34;73.22;97954.53;5004895;28;20068;-82
2023/03/14 09:47:00;;;;;;;1.58;0.70;;;;;;;12.37;73.10;97956.00;5000641;28;20115;-83
2023/03/14 09:49:31;;;;;;;2.05;0.75;;;;;;;12.34;73.12;97962.53;5009056;28;20045;-83
2023/03/14 09:52:00;;;;;;;0.98;0.47;;;;;;;12.35;73.63;97961.50;5007205;28;20046;-82
2023/03/14 09:54:39;;;;;;;1.67;0.60;;;;;;;12.31;73.22;97965.59;5025818;28;20099;-83
2023/03/14 09:57:11;;;;;;;0.98;0.60;;;;;;;12.35;73.59;97966.81;4981924;28;20080;-84
2023/03/14 09:59:38;;;;;;;3.83;0.80;;;;;;;12.37;74.06;97966.66;4985413;28;20050;-83
2023/03/14 10:02:25;;;;;;;4.43;0.60;;;;;;;12.33;74.42;97968.84;5006528;28;20042;-84
2023/03/14 10:04:53;;;;;;;2.05;0.73;;;;;;;12.36;74.91;97960.50;4966301;28;20057;-83
2023/03/14 10:07:31;;;;;;;2.30;0.90;;;;;;;12.30;74.26;97963.91;5005137;28;20084;-83
2023/03/14 10:09:58;;;;;;;1.65;1.08;;;;;;;12.43;74.72;97951.72;4982464;28;20052;-83
2023/03/14 10:12:55;;;;;;;2.15;0.73;;;;;;;12.32;74.13;97961.06;4991415;28;20128;-83
2023/03/14 10:15:40;;;;;;;0.70;0.50;;;;;;;12.33;74.22;97960.88;4909909;28;20057;-83
2023/03/14 10:18:14;;;;;;;0.93;0.70;;;;;;;12.37;74.26;97961.31;4981320;28;20042;-83
2023/03/14 10:20:43;;;;;;;2.38;0.63;;;;;;;12.45;74.51;97953.19;4985470;28;20041;-83
2023/03/14 10:23:13;;;;;;;3.00;1.08;;;;;;;12.47;74.49;97955.66;5005472;28;20045;-83
2023/03/14 10:25:45;;;;;;;2.17;0.70;;;;;;;12.48;74.42;97960.78;4991372;28;20119;-82
2023/03/14 10:28:33;;;;;;;1.08;0.50;;;;;;;12.40;73.98;97957.44;4991064;28;20136;-82
2023/03/14 10:31:00;;;;;;;8.02;5.22;;;;;;;12.50;75.24;97948.09;4955456;28;20053;-81
2023/03/14 10:33:30;;;;;;;2.05;0.73;;;;;;;12.53;75.01;97966.34;4997793;28;20114;-84
2023/03/14 10:36:02;;;;;;;1.52;0.57;;;;;;;12.49;74.24;97953.59;5002424;28;20054;-82
2023/03/14 10:38:31;;;;;;;2.42;0.52;;;;;;;12.46;74.50;97975.28;4989036;28;20390;-82
2023/03/14 10:40:59;;;;;;;0.95;0.52;;;;;;;12.46;74.21;97993.94;5001071;28;20045;-82
2023/03/14 10:43:33;;;;;;;4.53;0.80;;;;;;;12.31;75.12;97976.22;5019245;28;20041;-82
2023/03/14 10:46:09;;;;;;;0.57;0.57;;;;;;;12.33;75.71;97992.81;4993565;28;20148;-83
2023/03/14 10:48:56;;;;;;;3.80;0.77;;;;;;;12.28;76.48;97981.91;4956998;28;20547;-82
2023/03/14 10:51:28;;;;;;;0.45;0.40;;;;;;;12.24;77.42;97977.19;4989741;28;20494;-83
2023/03/14 10:54:04;;;;;;;6.28;0.80;;;;;;;12.22;76.74;97977.38;5015339;28;20089;-82
2023/03/14 10:56:36;;;;;;;1.17;0.43;;;;;;;12.28;76.90;97971.25;4980992;28;20054;-83
2023/03/14 10:59:07;;;;;;;1.47;0.40;;;;;;;12.31;76.38;97975.38;4991075;28;20042;-83
2023/03/14 11:01:55;;;;;;;1.08;0.80;;;;;;;12.27;76.69;97979.47;5007779;28;20093;-84
2023/03/14 11:04:24;;;;;;;5.28;1.35;;;;;;;12.33;76.84;97978.69;4987712;28;20041;-83
2023/03/14 11:07:03;;;;;;;1.48;0.90;;;;;;;12.33;77.34;97984.00;5003830;28;20099;-82
2023/03/14 11:09:46;;;;;;;1.08;0.65;;;;;;;12.30;78.32;97992.38;4997613;28;20049;-83
2023/03/14 11:12:25;;;;;;;2.00;0.55;;;;;;;12.21;78.99;97981.03;4956989;28;20054;-83
2023/03/14 11:14:58;;;;;;;1.75;0.50;;;;;;;12.26;78.67;97986.63;5000510;28;20526;-83
2023/03/14 11:17:31;;;;;;;;;;;;;;;12.06;82.09;97973.16;5015577;28;20133;-83
2023/03/14 11:20:09;;;;;;;3.92;1.20;;;;;;;12.12;80.06;97980.34;4989276;28;19921;-82
2023/03/14 11:22:41;;;;;;;0.30;0.30;;;;;;;12.13;79.52;97978.50;4994167;28;20532;-83
2023/03/14 11:25:18;;;;;;;1.25;0.70;;;;;;;12.10;80.21;97982.38;5018285;28;20042;-83
2023/03/14 11:27:58;;;;;;;2.97;0.60;;;;;;;12.09;79.76;97985.25;5009182;28;20046;-82
2023/03/14 11:30:49;;;;;;;2.72;0.70;;;;;;;12.13;80.45;97967.88;4966555;28;20119;-83
2023/03/14 11:33:18;;;;;;;0.82;0.55;;;;;;;12.19;79.83;97980.41;4987446;28;20050;-83
2023/03/14 11:35:50;;;;;;;1.58;0.50;;;;;;;12.21;80.10;97977.56;4998593;28;20096;-83
2023/03/14 11:38:29;;;;;;;2.47;0.70;;;;;;;12.13;79.70;97974.00;5016855;28;20519;-83
2023/03/14 11:40:58;;;;;;;2.25;0.85;;;;;;;12.16;79.66;97989.59;4983531;28;20149;-82
2023/03/14 11:43:42;;;;;;;0.50;0.50;;;;;;;12.06;81.76;97985.59;5015269;28;20046;-81
2023/03/14 11:46:15;;;;;;;1.85;0.65;;;;;;;12.04;80.98;97985.81;4969559;28;20502;-81
2023/03/14 11:48:54;;;;;;;1.02;0.68;;;;;;;12.01;81.05;97980.03;4994781;28;20051;-82
2023/03/14 11:51:25;;;;;;;2.17;0.60;;;;;;;11.98;81.77;97996.38;4997070;28;20038;-82
2023/03/14 11:54:18;;;;;;;2.30;0.80;;;;;;;11.92;82.17;97993.47;5023006;28;20049;-83